sensor_id;sensor_type;location;lat;lon;timestamp;temperature;humidity
48208;DHT22;33997;53.278;9.708;2023-08-31T00:02:20;12.00;98.90
48208;DHT22;33997;53.278;9.708;2023-08-31T00:04:45;12.00;98.90
48208;DHT22;33997;53.278;9.708;2023-08-31T00:07:11;11.90;98.90
48208;DHT22;33997;53.278;9.708;2023-08-31T00:09:36;11.90;99.10
48208;DHT22;33997;53.278;9.708;2023-08-31T00:12:02;11.90;99.10
48208;DHT22;33997;53.278;9.708;2023-08-31T00:14:28;11.90;99.20
48208;DHT22;33997;53.278;9.708;2023-08-31T00:16:54;11.80;99.20
48208;DHT22;33997;53.278;9.708;2023-08-31T00:19:22;11.80;99.30
48208;DHT22;33997;53.278;9.708;2023-08-31T00:21:48;11.80;99.30
48208;DHT22;33997;53.278;9.708;2023-08-31T00:24:14;11.80;99.30
48208;DHT22;33997;53.278;9.708;2023-08-31T00:26:40;11.80;99.30
48208;DHT22;33997;53.278;9.708;2023-08-31T00:29:10;11.70;99.40
48208;DHT22;33997;53.278;9.708;2023-08-31T00:31:37;11.70;99.40
48208;DHT22;33997;53.278;9.708;2023-08-31T00:34:03;11.70;99.50
48208;DHT22;33997;53.278;9.708;2023-08-31T00:36:30;11.60;99.40
48208;DHT22;33997;53.278;9.708;2023-08-31T00:38:56;11.60;99.50
48208;DHT22;33997;53.278;9.708;2023-08-31T00:41:22;11.50;99.50
48208;DHT22;33997;53.278;9.708;2023-08-31T00:43:48;11.50;99.50
48208;DHT22;33997;53.278;9.708;2023-08-31T00:46:14;11.50;99.50
48208;DHT22;33997;53.278;9.708;2023-08-31T00:48:40;11.50;99.60
48208;DHT22;33997;53.278;9.708;2023-08-31T00:51:05;11.50;99.70
48208;DHT22;33997;53.278;9.708;2023-08-31T00:53:32;11.50;99.70
48208;DHT22;33997;53.278;9.708;2023-08-31T00:55:58;11.50;99.80
48208;DHT22;33997;53.278;9.708;2023-08-31T00:58:24;11.50;99.70
48208;DHT22;33997;53.278;9.708;2023-08-31T01:01:05;11.50;99.80
48208;DHT22;33997;53.278;9.708;2023-08-31T01:03:46;11.50;99.80
48208;DHT22;33997;53.278;9.708;2023-08-31T01:09:19;11.40;99.80
48208;DHT22;33997;53.278;9.708;2023-08-31T01:14:42;11.40;99.90
48208;DHT22;33997;53.278;9.708;2023-08-31T01:17:08;11.40;99.90
48208;DHT22;33997;53.278;9.708;2023-08-31T01:19:50;11.40;99.90
48208;DHT22;33997;53.278;9.708;2023-08-31T01:22:27;11.40;99.90
48208;DHT22;33997;53.278;9.708;2023-08-31T01:24:54;11.40;99.90
48208;DHT22;33997;53.278;9.708;2023-08-31T01:27:20;11.30;99.90
48208;DHT22;33997;53.278;9.708;2023-08-31T01:29:46;11.30;99.90
48208;DHT22;33997;53.278;9.708;2023-08-31T01:32:11;11.30;99.90
48208;DHT22;33997;53.278;9.708;2023-08-31T01:34:37;11.30;99.90
48208;DHT22;33997;53.278;9.708;2023-08-31T01:37:24;11.20;99.90
48208;DHT22;33997;53.278;9.708;2023-08-31T01:40:08;11.20;99.90
48208;DHT22;33997;53.278;9.708;2023-08-31T01:42:36;11.20;99.90
48208;DHT22;33997;53.278;9.708;2023-08-31T01:45:03;11.10;99.90
48208;DHT22;33997;53.278;9.708;2023-08-31T01:47:30;11.10;99.90
48208;DHT22;33997;53.278;9.708;2023-08-31T01:49:56;11.00;99.80
48208;DHT22;33997;53.278;9.708;2023-08-31T01:52:21;11.00;99.90
48208;DHT22;33997;53.278;9.708;2023-08-31T01:54:47;10.90;99.80
48208;DHT22;33997;53.278;9.708;2023-08-31T01:57:13;10.90;99.90
48208;DHT22;33997;53.278;9.708;2023-08-31T01:59:38;10.90;99.90
48208;DHT22;33997;53.278;9.708;2023-08-31T02:02:04;10.80;99.90
48208;DHT22;33997;53.278;9.708;2023-08-31T02:04:29;10.80;99.90
48208;DHT22;33997;53.278;9.708;2023-08-31T02:06:55;10.80;99.90
48208;DHT22;33997;53.278;9.708;2023-08-31T02:09:20;10.80;99.90
48208;DHT22;33997;53.278;9.708;2023-08-31T02:11:46;10.80;99.90
48208;DHT22;33997;53.278;9.708;2023-08-31T02:14:11;10.80;99.90
48208;DHT22;33997;53.278;9.708;2023-08-31T02:16:37;10.80;99.90
48208;DHT22;33997;53.278;9.708;2023-08-31T02:19:02;10.80;99.90
48208;DHT22;33997;53.278;9.708;2023-08-31T02:21:28;10.80;99.90
48208;DHT22;33997;53.278;9.708;2023-08-31T02:23:53;10.80;99.90
48208;DHT22;33997;53.278;9.708;2023-08-31T02:26:20;10.80;99.90
48208;DHT22;33997;53.278;9.708;2023-08-31T02:28:46;10.70;99.90
48208;DHT22;33997;53.278;9.708;2023-08-31T02:31:13;10.80;99.90
48208;DHT22;33997;53.278;9.708;2023-08-31T02:33:39;10.80;99.90
48208;DHT22;33997;53.278;9.708;2023-08-31T02:36:04;10.80;99.90
48208;DHT22;33997;53.278;9.708;2023-08-31T02:38:30;10.80;99.90
48208;DHT22;33997;53.278;9.708;2023-08-31T02:40:55;10.70;99.90
48208;DHT22;33997;53.278;9.708;2023-08-31T02:43:21;10.70;99.90
48208;DHT22;33997;53.278;9.708;2023-08-31T02:45:46;10.60;99.90
48208;DHT22;33997;53.278;9.708;2023-08-31T02:48:13;10.60;99.90
48208;DHT22;33997;53.278;9.708;2023-08-31T02:50:38;10.60;99.90
48208;DHT22;33997;53.278;9.708;2023-08-31T02:53:04;10.60;99.90
48208;DHT22;33997;53.278;9.708;2023-08-31T02:55:32;10.50;99.90
48208;DHT22;33997;53.278;9.708;2023-08-31T02:57:58;10.50;99.90
48208;DHT22;33997;53.278;9.708;2023-08-31T03:00:23;10.40;99.90
48208;DHT22;33997;53.278;9.708;2023-08-31T03:02:49;10.40;99.90
48208;DHT22;33997;53.278;9.708;2023-08-31T03:05:17;10.40;99.90
48208;DHT22;33997;53.278;9.708;2023-08-31T03:07:43;10.40;99.90
48208;DHT22;33997;53.278;9.708;2023-08-31T03:10:08;10.40;99.90
48208;DHT22;33997;53.278;9.708;2023-08-31T03:12:34;10.40;99.90
48208;DHT22;33997;53.278;9.708;2023-08-31T03:15:00;10.30;99.90
48208;DHT22;33997;53.278;9.708;2023-08-31T03:17:25;10.30;99.90
48208;DHT22;33997;53.278;9.708;2023-08-31T03:19:51;10.30;99.90
48208;DHT22;33997;53.278;9.708;2023-08-31T03:22:16;10.30;99.90
48208;DHT22;33997;53.278;9.708;2023-08-31T03:24:42;10.20;99.90
48208;DHT22;33997;53.278;9.708;2023-08-31T03:27:08;10.20;99.90
48208;DHT22;33997;53.278;9.708;2023-08-31T03:29:34;10.20;99.90
48208;DHT22;33997;53.278;9.708;2023-08-31T03:32:00;10.10;99.90
48208;DHT22;33997;53.278;9.708;2023-08-31T03:34:30;10.10;99.90
48208;DHT22;33997;53.278;9.708;2023-08-31T03:36:56;10.20;99.90
48208;DHT22;33997;53.278;9.708;2023-08-31T03:39:23;10.10;99.90
48208;DHT22;33997;53.278;9.708;2023-08-31T03:41:49;10.10;99.90
48208;DHT22;33997;53.278;9.708;2023-08-31T03:44:14;10.10;99.90
48208;DHT22;33997;53.278;9.708;2023-08-31T03:46:40;10.10;99.90
48208;DHT22;33997;53.278;9.708;2023-08-31T03:49:05;10.10;99.90
48208;DHT22;33997;53.278;9.708;2023-08-31T03:51:30;10.10;99.90
48208;DHT22;33997;53.278;9.708;2023-08-31T03:53:56;10.10;99.90
48208;DHT22;33997;53.278;9.708;2023-08-31T03:56:22;10.10;99.90
48208;DHT22;33997;53.278;9.708;2023-08-31T03:58:48;10.10;99.90
48208;DHT22;33997;53.278;9.708;2023-08-31T04:01:13;10.00;99.90
48208;DHT22;33997;53.278;9.708;2023-08-31T04:03:40;10.00;99.90
48208;DHT22;33997;53.278;9.708;2023-08-31T04:06:05;10.00;99.90
48208;DHT22;33997;53.278;9.708;2023-08-31T04:08:31;10.00;99.90
48208;DHT22;33997;53.278;9.708;2023-08-31T04:10:56;10.00;99.90
48208;DHT22;33997;53.278;9.708;2023-08-31T04:13:22;9.90;99.90
48208;DHT22;33997;53.278;9.708;2023-08-31T04:15:47;10.00;99.90
48208;DHT22;33997;53.278;9.708;2023-08-31T04:18:13;10.00;99.90
48208;DHT22;33997;53.278;9.708;2023-08-31T04:20:38;9.90;99.90
48208;DHT22;33997;53.278;9.708;2023-08-31T04:23:11;9.90;99.90
48208;DHT22;33997;53.278;9.708;2023-08-31T04:25:36;9.90;99.90
48208;DHT22;33997;53.278;9.708;2023-08-31T04:28:02;9.90;99.90
48208;DHT22;33997;53.278;9.708;2023-08-31T04:30:27;9.90;99.90
48208;DHT22;33997;53.278;9.708;2023-08-31T04:32:53;9.90;99.90
48208;DHT22;33997;53.278;9.708;2023-08-31T04:35:18;9.90;99.90
48208;DHT22;33997;53.278;9.708;2023-08-31T04:37:44;9.80;99.90
48208;DHT22;33997;53.278;9.708;2023-08-31T04:40:10;9.90;99.90
48208;DHT22;33997;53.278;9.708;2023-08-31T04:42:37;9.90;99.90
48208;DHT22;33997;53.278;9.708;2023-08-31T04:45:04;9.90;99.90
48208;DHT22;33997;53.278;9.708;2023-08-31T04:47:29;9.90;99.90
48208;DHT22;33997;53.278;9.708;2023-08-31T04:49:55;9.90;99.90
48208;DHT22;33997;53.278;9.708;2023-08-31T04:52:21;9.90;99.90
48208;DHT22;33997;53.278;9.708;2023-08-31T04:54:46;9.90;99.90
48208;DHT22;33997;53.278;9.708;2023-08-31T04:57:12;9.90;99.90
48208;DHT22;33997;53.278;9.708;2023-08-31T04:59:37;9.90;99.90
48208;DHT22;33997;53.278;9.708;2023-08-31T05:02:03;9.90;99.90
48208;DHT22;33997;53.278;9.708;2023-08-31T05:04:28;9.80;99.90
48208;DHT22;33997;53.278;9.708;2023-08-31T05:06:54;9.90;99.90
48208;DHT22;33997;53.278;9.708;2023-08-31T05:09:19;9.90;99.90
48208;DHT22;33997;53.278;9.708;2023-08-31T05:11:45;9.90;99.90
48208;DHT22;33997;53.278;9.708;2023-08-31T05:14:11;9.90;99.90
48208;DHT22;33997;53.278;9.708;2023-08-31T05:16:36;10.00;99.90
48208;DHT22;33997;53.278;9.708;2023-08-31T05:19:02;9.90;99.90
48208;DHT22;33997;53.278;9.708;2023-08-31T05:21:28;9.90;99.90
48208;DHT22;33997;53.278;9.708;2023-08-31T05:23:53;10.00;99.90
48208;DHT22;33997;53.278;9.708;2023-08-31T05:26:19;10.00;99.90
48208;DHT22;33997;53.278;9.708;2023-08-31T05:28:44;10.00;99.90
48208;DHT22;33997;53.278;9.708;2023-08-31T05:31:09;10.00;99.90
48208;DHT22;33997;53.278;9.708;2023-08-31T05:33:35;10.10;99.90
48208;DHT22;33997;53.278;9.708;2023-08-31T05:36:02;10.10;99.90
48208;DHT22;33997;53.278;9.708;2023-08-31T05:38:30;10.10;99.90
48208;DHT22;33997;53.278;9.708;2023-08-31T05:41:04;10.10;99.90
48208;DHT22;33997;53.278;9.708;2023-08-31T05:43:30;10.10;99.90
48208;DHT22;33997;53.278;9.708;2023-08-31T05:45:56;10.20;99.90
48208;DHT22;33997;53.278;9.708;2023-08-31T05:48:21;10.20;99.90
48208;DHT22;33997;53.278;9.708;2023-08-31T05:50:47;10.20;99.90
48208;DHT22;33997;53.278;9.708;2023-08-31T05:53:13;10.20;99.90
48208;DHT22;33997;53.278;9.708;2023-08-31T05:55:38;10.10;99.80
48208;DHT22;33997;53.278;9.708;2023-08-31T05:58:04;10.20;99.80
48208;DHT22;33997;53.278;9.708;2023-08-31T06:00:30;10.20;99.80
48208;DHT22;33997;53.278;9.708;2023-08-31T06:02:55;10.20;99.70
48208;DHT22;33997;53.278;9.708;2023-08-31T06:05:21;10.30;99.80
48208;DHT22;33997;53.278;9.708;2023-08-31T06:07:46;10.40;99.80
48208;DHT22;33997;53.278;9.708;2023-08-31T06:10:11;10.60;99.90
48208;DHT22;33997;53.278;9.708;2023-08-31T06:12:38;10.60;99.70
48208;DHT22;33997;53.278;9.708;2023-08-31T06:15:04;10.70;99.80
48208;DHT22;33997;53.278;9.708;2023-08-31T06:17:30;10.90;99.70
48208;DHT22;33997;53.278;9.708;2023-08-31T06:19:55;11.10;99.70
48208;DHT22;33997;53.278;9.708;2023-08-31T06:22:21;11.20;99.50
48208;DHT22;33997;53.278;9.708;2023-08-31T06:24:48;11.30;99.30
48208;DHT22;33997;53.278;9.708;2023-08-31T06:27:13;11.30;99.10
48208;DHT22;33997;53.278;9.708;2023-08-31T06:29:41;11.40;99.10
48208;DHT22;33997;53.278;9.708;2023-08-31T06:32:06;11.40;98.70
48208;DHT22;33997;53.278;9.708;2023-08-31T06:34:32;11.60;98.80
48208;DHT22;33997;53.278;9.708;2023-08-31T06:36:58;11.80;98.70
48208;DHT22;33997;53.278;9.708;2023-08-31T06:39:24;11.70;98.20
48208;DHT22;33997;53.278;9.708;2023-08-31T06:41:50;11.80;98.20
48208;DHT22;33997;53.278;9.708;2023-08-31T06:44:15;11.80;98.00
48208;DHT22;33997;53.278;9.708;2023-08-31T06:46:42;11.80;97.60
48208;DHT22;33997;53.278;9.708;2023-08-31T06:49:07;12.00;97.60
48208;DHT22;33997;53.278;9.708;2023-08-31T06:51:33;12.10;97.70
48208;DHT22;33997;53.278;9.708;2023-08-31T06:53:58;12.20;97.70
48208;DHT22;33997;53.278;9.708;2023-08-31T06:56:33;12.20;97.40
48208;DHT22;33997;53.278;9.708;2023-08-31T06:58:58;12.30;97.50
48208;DHT22;33997;53.278;9.708;2023-08-31T07:01:24;12.50;97.50
48208;DHT22;33997;53.278;9.708;2023-08-31T07:03:49;12.60;97.00
48208;DHT22;33997;53.278;9.708;2023-08-31T07:06:15;12.80;96.90
48208;DHT22;33997;53.278;9.708;2023-08-31T07:08:40;12.70;96.30
48208;DHT22;33997;53.278;9.708;2023-08-31T07:11:07;12.60;96.00
48208;DHT22;33997;53.278;9.708;2023-08-31T07:13:32;12.60;96.40
48208;DHT22;33997;53.278;9.708;2023-08-31T07:15:58;12.80;95.70
48208;DHT22;33997;53.278;9.708;2023-08-31T07:18:23;13.00;96.20
48208;DHT22;33997;53.278;9.708;2023-08-31T07:20:49;12.80;95.60
48208;DHT22;33997;53.278;9.708;2023-08-31T07:23:14;12.80;95.20
48208;DHT22;33997;53.278;9.708;2023-08-31T07:25:40;12.80;95.40
48208;DHT22;33997;53.278;9.708;2023-08-31T07:28:05;13.00;95.70
48208;DHT22;33997;53.278;9.708;2023-08-31T07:30:31;13.00;95.50
48208;DHT22;33997;53.278;9.708;2023-08-31T07:32:58;13.00;95.50
48208;DHT22;33997;53.278;9.708;2023-08-31T07:35:28;13.00;95.70
48208;DHT22;33997;53.278;9.708;2023-08-31T07:37:53;12.90;95.40
48208;DHT22;33997;53.278;9.708;2023-08-31T07:40:18;12.80;95.70
48208;DHT22;33997;53.278;9.708;2023-08-31T07:42:44;12.80;95.80
48208;DHT22;33997;53.278;9.708;2023-08-31T07:45:10;12.80;96.10
48208;DHT22;33997;53.278;9.708;2023-08-31T07:47:35;12.90;95.60
48208;DHT22;33997;53.278;9.708;2023-08-31T07:50:01;13.00;95.20
48208;DHT22;33997;53.278;9.708;2023-08-31T07:52:26;13.20;95.80
48208;DHT22;33997;53.278;9.708;2023-08-31T07:54:52;13.50;95.50
48208;DHT22;33997;53.278;9.708;2023-08-31T07:57:19;13.70;95.50
48208;DHT22;33997;53.278;9.708;2023-08-31T07:59:44;13.70;93.80
48208;DHT22;33997;53.278;9.708;2023-08-31T08:02:10;13.60;93.00
48208;DHT22;33997;53.278;9.708;2023-08-31T08:04:35;13.60;93.00
48208;DHT22;33997;53.278;9.708;2023-08-31T08:07:01;13.60;92.80
48208;DHT22;33997;53.278;9.708;2023-08-31T08:09:26;13.60;93.30
48208;DHT22;33997;53.278;9.708;2023-08-31T08:11:52;13.60;92.90
48208;DHT22;33997;53.278;9.708;2023-08-31T08:14:18;13.50;93.00
48208;DHT22;33997;53.278;9.708;2023-08-31T08:16:43;13.30;92.50
48208;DHT22;33997;53.278;9.708;2023-08-31T08:19:09;13.40;93.30
48208;DHT22;33997;53.278;9.708;2023-08-31T08:21:34;13.60;93.60
48208;DHT22;33997;53.278;9.708;2023-08-31T08:24:00;13.70;93.20
48208;DHT22;33997;53.278;9.708;2023-08-31T08:26:25;13.70;92.60
48208;DHT22;33997;53.278;9.708;2023-08-31T08:28:51;14.00;92.80
48208;DHT22;33997;53.278;9.708;2023-08-31T08:31:16;14.50;91.70
48208;DHT22;33997;53.278;9.708;2023-08-31T08:33:42;14.60;90.40
48208;DHT22;33997;53.278;9.708;2023-08-31T08:36:07;14.60;90.80
48208;DHT22;33997;53.278;9.708;2023-08-31T08:38:33;14.50;89.20
48208;DHT22;33997;53.278;9.708;2023-08-31T08:41:07;14.20;89.30
48208;DHT22;33997;53.278;9.708;2023-08-31T08:43:33;14.20;90.60
48208;DHT22;33997;53.278;9.708;2023-08-31T08:46:05;14.00;92.00
48208;DHT22;33997;53.278;9.708;2023-08-31T08:48:33;13.70;92.10
48208;DHT22;33997;53.278;9.708;2023-08-31T08:51:00;13.80;92.50
48208;DHT22;33997;53.278;9.708;2023-08-31T08:53:25;14.00;92.90
48208;DHT22;33997;53.278;9.708;2023-08-31T08:55:51;14.00;92.80
48208;DHT22;33997;53.278;9.708;2023-08-31T08:58:16;14.20;92.60
48208;DHT22;33997;53.278;9.708;2023-08-31T09:00:42;14.30;92.40
48208;DHT22;33997;53.278;9.708;2023-08-31T09:03:08;14.90;92.90
48208;DHT22;33997;53.278;9.708;2023-08-31T09:05:33;14.90;91.50
48208;DHT22;33997;53.278;9.708;2023-08-31T09:08:07;14.70;90.70
48208;DHT22;33997;53.278;9.708;2023-08-31T09:10:42;14.50;90.90
48208;DHT22;33997;53.278;9.708;2023-08-31T09:13:13;14.10;90.70
48208;DHT22;33997;53.278;9.708;2023-08-31T09:15:43;14.00;91.80
48208;DHT22;33997;53.278;9.708;2023-08-31T09:18:16;14.10;91.70
48208;DHT22;33997;53.278;9.708;2023-08-31T09:20:45;14.50;90.30
48208;DHT22;33997;53.278;9.708;2023-08-31T09:23:12;14.70;90.70
48208;DHT22;33997;53.278;9.708;2023-08-31T09:25:41;14.70;89.50
48208;DHT22;33997;53.278;9.708;2023-08-31T09:28:08;14.60;90.20
48208;DHT22;33997;53.278;9.708;2023-08-31T09:30:37;14.30;90.20
48208;DHT22;33997;53.278;9.708;2023-08-31T09:33:16;14.10;91.10
48208;DHT22;33997;53.278;9.708;2023-08-31T09:35:50;13.70;92.10
48208;DHT22;33997;53.278;9.708;2023-08-31T09:38:18;13.40;93.20
48208;DHT22;33997;53.278;9.708;2023-08-31T09:40:44;13.30;94.30
48208;DHT22;33997;53.278;9.708;2023-08-31T09:43:10;13.10;94.40
48208;DHT22;33997;53.278;9.708;2023-08-31T09:45:36;13.10;94.90
48208;DHT22;33997;53.278;9.708;2023-08-31T09:48:03;13.30;95.30
48208;DHT22;33997;53.278;9.708;2023-08-31T09:50:30;13.50;95.30
48208;DHT22;33997;53.278;9.708;2023-08-31T09:53:01;13.50;95.00
48208;DHT22;33997;53.278;9.708;2023-08-31T09:55:29;13.80;95.10
48208;DHT22;33997;53.278;9.708;2023-08-31T09:57:57;14.00;95.10
48208;DHT22;33997;53.278;9.708;2023-08-31T10:00:28;14.30;94.00
48208;DHT22;33997;53.278;9.708;2023-08-31T10:03:02;14.60;94.00
48208;DHT22;33997;53.278;9.708;2023-08-31T10:05:28;14.80;93.50
48208;DHT22;33997;53.278;9.708;2023-08-31T10:07:54;14.80;92.90
48208;DHT22;33997;53.278;9.708;2023-08-31T10:10:20;14.80;92.10
48208;DHT22;33997;53.278;9.708;2023-08-31T10:12:48;14.70;92.00
48208;DHT22;33997;53.278;9.708;2023-08-31T10:15:16;14.80;91.90
48208;DHT22;33997;53.278;9.708;2023-08-31T10:17:42;14.90;92.20
48208;DHT22;33997;53.278;9.708;2023-08-31T10:20:08;15.30;91.50
48208;DHT22;33997;53.278;9.708;2023-08-31T10:22:35;15.70;90.60
48208;DHT22;33997;53.278;9.708;2023-08-31T10:25:02;15.80;87.70
48208;DHT22;33997;53.278;9.708;2023-08-31T10:35:48;16.20;86.00
48208;DHT22;33997;53.278;9.708;2023-08-31T10:38:30;16.00;86.00
48208;DHT22;33997;53.278;9.708;2023-08-31T10:43:46;15.90;86.70
48208;DHT22;33997;53.278;9.708;2023-08-31T10:46:42;16.30;85.20
48208;DHT22;33997;53.278;9.708;2023-08-31T10:51:48;16.80;83.80
48208;DHT22;33997;53.278;9.708;2023-08-31T10:54:23;16.80;82.00
48208;DHT22;33997;53.278;9.708;2023-08-31T10:57:01;17.30;81.50
48208;DHT22;33997;53.278;9.708;2023-08-31T10:59:51;17.00;81.00
48208;DHT22;33997;53.278;9.708;2023-08-31T11:05:18;16.40;82.60
48208;DHT22;33997;53.278;9.708;2023-08-31T11:07:50;16.50;82.10
48208;DHT22;33997;53.278;9.708;2023-08-31T11:10:23;16.30;81.40
48208;DHT22;33997;53.278;9.708;2023-08-31T11:12:51;16.40;81.40
48208;DHT22;33997;53.278;9.708;2023-08-31T11:15:19;16.40;81.50
48208;DHT22;33997;53.278;9.708;2023-08-31T11:17:46;16.70;80.20
48208;DHT22;33997;53.278;9.708;2023-08-31T11:20:18;16.90;80.00
48208;DHT22;33997;53.278;9.708;2023-08-31T11:22:45;16.60;80.20
48208;DHT22;33997;53.278;9.708;2023-08-31T11:25:13;16.90;80.80
48208;DHT22;33997;53.278;9.708;2023-08-31T11:27:38;17.50;79.40
48208;DHT22;33997;53.278;9.708;2023-08-31T11:30:25;17.60;76.90
48208;DHT22;33997;53.278;9.708;2023-08-31T11:32:52;18.10;75.10
48208;DHT22;33997;53.278;9.708;2023-08-31T11:35:19;17.50;74.10
48208;DHT22;33997;53.278;9.708;2023-08-31T11:37:48;17.60;76.50
48208;DHT22;33997;53.278;9.708;2023-08-31T11:40:14;18.30;73.00
48208;DHT22;33997;53.278;9.708;2023-08-31T11:42:40;18.10;73.50
48208;DHT22;33997;53.278;9.708;2023-08-31T11:45:06;18.20;72.70
48208;DHT22;33997;53.278;9.708;2023-08-31T11:47:33;19.00;73.30
48208;DHT22;33997;53.278;9.708;2023-08-31T11:49:59;19.30;69.30
48208;DHT22;33997;53.278;9.708;2023-08-31T11:52:27;19.10;68.40
48208;DHT22;33997;53.278;9.708;2023-08-31T11:54:53;18.70;69.00
48208;DHT22;33997;53.278;9.708;2023-08-31T11:57:19;18.70;68.40
48208;DHT22;33997;53.278;9.708;2023-08-31T11:59:51;18.50;69.70
48208;DHT22;33997;53.278;9.708;2023-08-31T12:02:19;18.80;69.80
48208;DHT22;33997;53.278;9.708;2023-08-31T12:04:45;18.60;69.80
48208;DHT22;33997;53.278;9.708;2023-08-31T12:07:16;18.80;69.60
48208;DHT22;33997;53.278;9.708;2023-08-31T12:09:41;18.40;69.70
48208;DHT22;33997;53.278;9.708;2023-08-31T12:12:10;18.30;70.00
48208;DHT22;33997;53.278;9.708;2023-08-31T12:14:37;18.10;70.60
48208;DHT22;33997;53.278;9.708;2023-08-31T12:17:07;18.30;69.80
48208;DHT22;33997;53.278;9.708;2023-08-31T12:19:36;18.50;70.10
48208;DHT22;33997;53.278;9.708;2023-08-31T12:22:02;18.40;70.50
48208;DHT22;33997;53.278;9.708;2023-08-31T12:24:27;18.20;71.60
48208;DHT22;33997;53.278;9.708;2023-08-31T12:26:53;18.00;70.60
48208;DHT22;33997;53.278;9.708;2023-08-31T12:29:22;17.70;71.80
48208;DHT22;33997;53.278;9.708;2023-08-31T12:31:48;17.60;72.20
48208;DHT22;33997;53.278;9.708;2023-08-31T12:34:15;17.40;72.60
48208;DHT22;33997;53.278;9.708;2023-08-31T12:36:40;17.30;72.80
48208;DHT22;33997;53.278;9.708;2023-08-31T12:39:07;17.30;72.90
48208;DHT22;33997;53.278;9.708;2023-08-31T12:41:36;17.30;72.20
48208;DHT22;33997;53.278;9.708;2023-08-31T12:44:03;17.30;71.80
48208;DHT22;33997;53.278;9.708;2023-08-31T12:46:29;17.40;70.30
48208;DHT22;33997;53.278;9.708;2023-08-31T12:48:55;17.50;70.20
48208;DHT22;33997;53.278;9.708;2023-08-31T12:51:20;17.40;70.90
48208;DHT22;33997;53.278;9.708;2023-08-31T12:53:46;17.20;71.30
48208;DHT22;33997;53.278;9.708;2023-08-31T12:56:12;17.10;73.00
48208;DHT22;33997;53.278;9.708;2023-08-31T12:58:38;16.90;73.60
48208;DHT22;33997;53.278;9.708;2023-08-31T13:01:04;16.80;74.80
48208;DHT22;33997;53.278;9.708;2023-08-31T13:03:30;16.60;76.20
48208;DHT22;33997;53.278;9.708;2023-08-31T13:05:55;16.30;78.60
48208;DHT22;33997;53.278;9.708;2023-08-31T13:08:21;15.00;82.70
48208;DHT22;33997;53.278;9.708;2023-08-31T13:10:56;13.50;85.60
48208;DHT22;33997;53.278;9.708;2023-08-31T13:13:22;12.70;89.00
48208;DHT22;33997;53.278;9.708;2023-08-31T13:15:48;12.80;89.80
48208;DHT22;33997;53.278;9.708;2023-08-31T13:18:14;12.80;89.70
48208;DHT22;33997;53.278;9.708;2023-08-31T13:20:39;13.00;90.40
48208;DHT22;33997;53.278;9.708;2023-08-31T13:23:06;13.20;91.20
48208;DHT22;33997;53.278;9.708;2023-08-31T13:25:31;13.30;90.90
48208;DHT22;33997;53.278;9.708;2023-08-31T13:27:57;13.40;91.50
48208;DHT22;33997;53.278;9.708;2023-08-31T13:30:23;13.50;92.60
48208;DHT22;33997;53.278;9.708;2023-08-31T13:32:48;13.50;92.60
48208;DHT22;33997;53.278;9.708;2023-08-31T13:35:14;13.60;92.70
48208;DHT22;33997;53.278;9.708;2023-08-31T13:37:39;13.60;93.00
48208;DHT22;33997;53.278;9.708;2023-08-31T13:40:06;13.80;93.90
48208;DHT22;33997;53.278;9.708;2023-08-31T13:42:34;13.90;93.40
48208;DHT22;33997;53.278;9.708;2023-08-31T13:45:01;14.00;93.60
48208;DHT22;33997;53.278;9.708;2023-08-31T13:47:28;14.00;93.20
48208;DHT22;33997;53.278;9.708;2023-08-31T13:49:54;14.20;93.60
48208;DHT22;33997;53.278;9.708;2023-08-31T13:52:19;14.30;92.90
48208;DHT22;33997;53.278;9.708;2023-08-31T13:54:46;14.50;93.10
48208;DHT22;33997;53.278;9.708;2023-08-31T13:57:12;14.50;91.50
48208;DHT22;33997;53.278;9.708;2023-08-31T13:59:42;14.60;92.00
48208;DHT22;33997;53.278;9.708;2023-08-31T14:02:08;14.80;91.90
48208;DHT22;33997;53.278;9.708;2023-08-31T14:04:33;15.20;91.40
48208;DHT22;33997;53.278;9.708;2023-08-31T14:06:59;15.80;90.80
48208;DHT22;33997;53.278;9.708;2023-08-31T14:09:24;15.80;87.80
48208;DHT22;33997;53.278;9.708;2023-08-31T14:11:50;15.60;87.30
48208;DHT22;33997;53.278;9.708;2023-08-31T14:14:15;15.60;87.10
48208;DHT22;33997;53.278;9.708;2023-08-31T14:16:41;16.50;88.00
48208;DHT22;33997;53.278;9.708;2023-08-31T14:19:06;16.50;86.20
48208;DHT22;33997;53.278;9.708;2023-08-31T14:21:32;17.00;85.50
48208;DHT22;33997;53.278;9.708;2023-08-31T14:23:57;17.80;85.20
48208;DHT22;33997;53.278;9.708;2023-08-31T14:26:24;18.30;80.20
48208;DHT22;33997;53.278;9.708;2023-08-31T14:28:51;18.60;78.80
48208;DHT22;33997;53.278;9.708;2023-08-31T14:31:17;19.20;78.60
48208;DHT22;33997;53.278;9.708;2023-08-31T14:33:42;19.30;74.80
48208;DHT22;33997;53.278;9.708;2023-08-31T14:36:08;19.50;75.10
48208;DHT22;33997;53.278;9.708;2023-08-31T14:38:33;20.00;73.70
48208;DHT22;33997;53.278;9.708;2023-08-31T14:40:59;20.50;75.60
48208;DHT22;33997;53.278;9.708;2023-08-31T14:43:24;20.40;69.70
48208;DHT22;33997;53.278;9.708;2023-08-31T14:45:50;19.90;69.90
48208;DHT22;33997;53.278;9.708;2023-08-31T14:48:15;20.20;71.30
48208;DHT22;33997;53.278;9.708;2023-08-31T14:50:42;20.50;72.20
48208;DHT22;33997;53.278;9.708;2023-08-31T14:53:08;20.10;69.10
48208;DHT22;33997;53.278;9.708;2023-08-31T14:55:34;19.90;72.20
48208;DHT22;33997;53.278;9.708;2023-08-31T14:58:00;19.60;68.00
48208;DHT22;33997;53.278;9.708;2023-08-31T15:00:25;19.70;69.80
48208;DHT22;33997;53.278;9.708;2023-08-31T15:02:51;19.60;69.80
48208;DHT22;33997;53.278;9.708;2023-08-31T15:05:16;19.00;70.40
48208;DHT22;33997;53.278;9.708;2023-08-31T15:07:42;19.00;70.80
48208;DHT22;33997;53.278;9.708;2023-08-31T15:10:07;19.70;73.20
48208;DHT22;33997;53.278;9.708;2023-08-31T15:12:33;20.00;70.80
48208;DHT22;33997;53.278;9.708;2023-08-31T15:15:03;19.50;69.90
48208;DHT22;33997;53.278;9.708;2023-08-31T15:17:29;19.00;72.10
48208;DHT22;33997;53.278;9.708;2023-08-31T15:19:54;18.60;73.90
48208;DHT22;33997;53.278;9.708;2023-08-31T15:22:20;18.30;72.70
48208;DHT22;33997;53.278;9.708;2023-08-31T15:24:46;18.50;73.60
48208;DHT22;33997;53.278;9.708;2023-08-31T15:27:11;18.40;72.20
48208;DHT22;33997;53.278;9.708;2023-08-31T15:29:37;18.90;74.00
48208;DHT22;33997;53.278;9.708;2023-08-31T15:32:03;19.40;71.90
48208;DHT22;33997;53.278;9.708;2023-08-31T15:34:28;19.60;71.30
48208;DHT22;33997;53.278;9.708;2023-08-31T15:36:54;19.70;71.90
48208;DHT22;33997;53.278;9.708;2023-08-31T15:39:19;19.30;72.90
48208;DHT22;33997;53.278;9.708;2023-08-31T15:41:45;19.30;71.30
48208;DHT22;33997;53.278;9.708;2023-08-31T15:44:11;19.50;71.60
48208;DHT22;33997;53.278;9.708;2023-08-31T15:46:37;19.60;73.50
48208;DHT22;33997;53.278;9.708;2023-08-31T15:49:02;19.80;71.80
48208;DHT22;33997;53.278;9.708;2023-08-31T15:51:28;20.00;70.70
48208;DHT22;33997;53.278;9.708;2023-08-31T15:53:54;20.00;70.80